Time;durP1;ratioP1;P1;durP2;ratioP2;P2;SDS_P1;SDS_P2;PMS_P1;PMS_P2;Temp;Humidity;BMP_temperature;BMP_pressure;BME280_temperature;BME280_humidity;BME280_pressure;Samples;Min_cycle;Max_cycle;Signal;HPM_P1;HPM_P2
2021/06/19 00:00:26;;;;;;;;;;;22.70;56.70;;;;;;491630;240;1151;-74
2021/06/19 00:02:28;;;;;;;;;;;22.70;56.60;;;;;;491555;240;1097;-74
2021/06/19 00:04:31;;;;;;;;;;;22.70;56.60;;;;;;491622;240;1225;-74
2021/06/19 00:06:31;;;;;;;;;;;22.70;56.60;;;;;;491627;240;2141;-74
2021/06/19 00:08:33;;;;;;;;;;;22.80;56.60;;;;;;491604;240;1040;-74
2021/06/19 00:10:34;;;;;;;;;;;22.80;56.30;;;;;;491704;240;994;-74
2021/06/19 00:12:36;;;;;;;;;;;22.90;56.20;;;;;;491584;240;1054;-74
2021/06/19 00:14:37;;;;;;;;;;;22.90;56.20;;;;;;491698;240;1146;-74
2021/06/19 00:16:38;;;;;;;;;;;22.90;56.20;;;;;;491522;240;1250;-74
2021/06/19 00:18:40;;;;;;;;;;;22.90;56.30;;;;;;491581;240;996;-74
2021/06/19 00:20:41;;;;;;;;;;;22.90;56.20;;;;;;491544;240;1043;-74
2021/06/19 00:22:42;;;;;;;;;;;22.90;56.30;;;;;;491520;240;1107;-74
2021/06/19 00:24:44;;;;;;;;;;;22.80;56.30;;;;;;491626;240;947;-74
2021/06/19 00:26:45;;;;;;;;;;;22.80;56.50;;;;;;491592;240;2145;-74
2021/06/19 00:28:46;;;;;;;;;;;22.80;56.40;;;;;;491557;240;1070;-74
2021/06/19 00:30:48;;;;;;;;;;;22.70;56.70;;;;;;491606;240;1303;-74
2021/06/19 00:32:49;;;;;;;;;;;22.60;57.00;;;;;;491577;240;1147;-74
2021/06/19 00:34:50;;;;;;;;;;;22.50;57.30;;;;;;491648;240;957;-74
2021/06/19 00:36:52;;;;;;;;;;;22.30;57.60;;;;;;491581;240;1219;-74
2021/06/19 00:38:53;;;;;;;;;;;22.40;57.60;;;;;;491588;240;988;-74
2021/06/19 00:40:54;;;;;;;;;;;22.30;57.70;;;;;;491663;240;1213;-74
2021/06/19 00:42:55;;;;;;;;;;;22.30;57.90;;;;;;491615;240;1063;-74
2021/06/19 00:44:57;;;;;;;;;;;22.30;58.00;;;;;;491632;240;1184;-74
2021/06/19 00:46:58;;;;;;;;;;;22.20;57.80;;;;;;491563;240;2191;-74
2021/06/19 00:48:59;;;;;;;;;;;22.20;58.00;;;;;;491588;240;1038;-74
2021/06/19 00:51:01;;;;;;;;;;;22.30;58.00;;;;;;491554;240;1203;-74
2021/06/19 00:53:02;;;;;;;;;;;22.30;58.00;;;;;;491562;240;1244;-74
2021/06/19 00:55:03;;;;;;;;;;;22.30;57.90;;;;;;491636;240;1028;-74
2021/06/19 00:57:05;;;;;;;;;;;22.30;57.80;;;;;;491540;240;1275;-74
2021/06/19 00:59:06;;;;;;;;;;;22.40;57.80;;;;;;491626;240;1140;-74
2021/06/19 01:01:07;;;;;;;;;;;22.40;57.60;;;;;;491621;240;1052;-74
2021/06/19 01:03:09;;;;;;;;;;;22.40;57.60;;;;;;491547;240;1141;-74
2021/06/19 01:05:10;;;;;;;;;;;22.40;57.60;;;;;;491681;240;1042;-74
2021/06/19 01:07:11;;;;;;;;;;;22.40;57.50;;;;;;491563;240;2192;-74
2021/06/19 01:09:13;;;;;;;;;;;22.40;57.50;;;;;;491617;240;950;-74
2021/06/19 01:11:14;;;;;;;;;;;22.40;57.60;;;;;;491612;240;1167;-74
2021/06/19 01:13:15;;;;;;;;;;;22.40;57.60;;;;;;491639;240;1150;-74
2021/06/19 01:15:17;;;;;;;;;;;22.30;57.70;;;;;;491653;240;1180;-74
2021/06/19 01:17:19;;;;;;;;;;;22.30;57.70;;;;;;491599;240;975;-74
2021/06/19 01:19:20;;;;;;;;;;;22.40;57.70;;;;;;491668;240;1047;-74
2021/06/19 01:21:21;;;;;;;;;;;22.30;57.80;;;;;;491575;240;1110;-74
2021/06/19 01:23:23;;;;;;;;;;;22.30;57.90;;;;;;491634;240;1218;-74
2021/06/19 01:25:24;;;;;;;;;;;22.30;58.00;;;;;;491627;240;951;-74
2021/06/19 01:27:25;;;;;;;;;;;22.20;58.10;;;;;;491559;240;2171;-74
2021/06/19 01:29:27;;;;;;;;;;;22.20;58.20;;;;;;491671;240;937;-74
2021/06/19 01:31:28;;;;;;;;;;;22.20;58.20;;;;;;491572;240;1104;-74
2021/06/19 01:33:29;;;;;;;;;;;22.20;58.30;;;;;;491619;240;965;-74
2021/06/19 01:35:30;;;;;;;;;;;22.20;58.30;;;;;;491591;240;956;-74
2021/06/19 01:37:32;;;;;;;;;;;22.20;58.40;;;;;;491601;240;1044;-74
2021/06/19 01:39:34;;;;;;;;;;;22.10;58.50;;;;;;491577;240;1010;-74
2021/06/19 01:41:35;;;;;;;;;;;22.10;58.50;;;;;;491528;240;1119;-74
2021/06/19 01:43:36;;;;;;;;;;;22.10;58.50;;;;;;491617;240;1145;-74
2021/06/19 01:45:38;;;;;;;;;;;22.10;58.50;;;;;;491582;240;1301;-74
2021/06/19 01:47:39;;;;;;;;;;;22.10;58.60;;;;;;491596;240;2171;-74
2021/06/19 01:49:40;;;;;;;;;;;22.00;58.60;;;;;;491637;240;1067;-74
2021/06/19 01:51:42;;;;;;;;;;;22.00;58.80;;;;;;491562;240;1115;-74
2021/06/19 01:53:43;;;;;;;;;;;22.00;58.70;;;;;;491623;240;972;-74
2021/06/19 01:55:45;;;;;;;;;;;22.10;58.50;;;;;;491565;240;1315;-74
2021/06/19 01:57:46;;;;;;;;;;;22.20;58.30;;;;;;491656;240;1372;-74
2021/06/19 01:59:47;;;;;;;;;;;22.20;58.10;;;;;;491707;240;951;-74
2021/06/19 02:01:48;;;;;;;;;;;22.20;58.10;;;;;;491604;240;1179;-74
2021/06/19 02:03:50;;;;;;;;;;;22.20;58.20;;;;;;491660;240;1024;-74
2021/06/19 02:05:51;;;;;;;;;;;22.20;58.20;;;;;;491550;240;1121;-74
2021/06/19 02:07:52;;;;;;;;;;;22.20;58.20;;;;;;491512;240;2124;-74
2021/06/19 02:09:54;;;;;;;;;;;22.20;58.00;;;;;;491583;240;1005;-74
2021/06/19 02:11:55;;;;;;;;;;;22.20;58.00;;;;;;491474;240;1042;-74
2021/06/19 02:13:56;;;;;;;;;;;22.20;58.20;;;;;;491607;240;1040;-74
2021/06/19 02:15:58;;;;;;;;;;;22.10;58.30;;;;;;491541;240;1305;-74
2021/06/19 02:17:59;;;;;;;;;;;22.10;58.40;;;;;;491606;240;1133;-74
2021/06/19 02:20:00;;;;;;;;;;;22.10;58.50;;;;;;491568;240;1055;-74
2021/06/19 02:22:02;;;;;;;;;;;22.10;58.50;;;;;;491599;240;1087;-74
2021/06/19 02:24:03;;;;;;;;;;;22.10;58.50;;;;;;491541;240;1132;-74
2021/06/19 02:26:04;;;;;;;;;;;22.10;58.60;;;;;;491538;240;1207;-74
2021/06/19 02:28:06;;;;;;;;;;;22.00;58.70;;;;;;491650;240;2125;-74
2021/06/19 02:30:07;;;;;;;;;;;22.00;58.80;;;;;;491607;240;1011;-74
2021/06/19 02:32:09;;;;;;;;;;;22.10;58.60;;;;;;491573;240;1317;-74
2021/06/19 02:34:10;;;;;;;;;;;22.00;58.80;;;;;;491619;240;972;-74
2021/06/19 02:36:11;;;;;;;;;;;21.90;58.90;;;;;;491487;240;1143;-74
2021/06/19 02:38:12;;;;;;;;;;;21.90;59.10;;;;;;491689;240;1066;-74
2021/06/19 02:40:14;;;;;;;;;;;21.80;59.40;;;;;;491592;240;1133;-74
2021/06/19 02:42:15;;;;;;;;;;;21.80;59.40;;;;;;491631;240;1065;-74
2021/06/19 02:44:16;;;;;;;;;;;21.80;59.60;;;;;;491655;240;1031;-74
2021/06/19 02:46:18;;;;;;;;;;;21.70;59.60;;;;;;491565;240;1331;-74
2021/06/19 02:48:19;;;;;;;;;;;21.70;59.70;;;;;;491630;240;2180;-74
2021/06/19 02:50:20;;;;;;;;;;;21.70;59.80;;;;;;491619;240;1065;-74
2021/06/19 02:52:22;;;;;;;;;;;21.60;59.90;;;;;;491625;240;1115;-74
2021/06/19 02:54:23;;;;;;;;;;;21.60;60.00;;;;;;491695;240;1055;-74
2021/06/19 02:56:24;;;;;;;;;;;21.60;59.90;;;;;;491572;240;1235;-74
2021/06/19 02:58:26;;;;;;;;;;;21.60;60.00;;;;;;491638;240;961;-74
2021/06/19 03:00:27;;;;;;;;;;;21.60;60.00;;;;;;491544;240;1047;-74
2021/06/19 03:02:29;;;;;;;;;;;21.70;59.90;;;;;;491527;240;1197;-74
2021/06/19 03:04:30;;;;;;;;;;;21.70;59.60;;;;;;491651;240;936;-74
2021/06/19 03:06:31;;;;;;;;;;;21.80;59.50;;;;;;491544;240;2132;-74
2021/06/19 03:08:33;;;;;;;;;;;21.80;59.60;;;;;;491677;240;974;-74
2021/06/19 03:10:34;;;;;;;;;;;21.80;59.50;;;;;;491590;240;1056;-74
2021/06/19 03:12:35;;;;;;;;;;;21.80;59.50;;;;;;491621;240;1038;-74
2021/06/19 03:14:37;;;;;;;;;;;21.80;59.50;;;;;;491603;240;1004;-74
2021/06/19 03:16:38;;;;;;;;;;;21.80;59.40;;;;;;491513;240;1174;-74
2021/06/19 03:18:39;;;;;;;;;;;21.80;59.40;;;;;;491570;240;1009;-74
2021/06/19 03:20:41;;;;;;;;;;;21.90;59.30;;;;;;491580;240;1014;-74
2021/06/19 03:22:43;;;;;;;;;;;21.90;59.30;;;;;;491642;240;1031;-74
2021/06/19 03:24:44;;;;;;;;;;;21.90;59.30;;;;;;491639;240;1046;-74
2021/06/19 03:26:45;;;;;;;;;;;21.90;59.30;;;;;;491536;240;2129;-74
2021/06/19 03:28:47;;;;;;;;;;;21.90;59.30;;;;;;491580;240;1176;-74
2021/06/19 03:30:48;;;;;;;;;;;21.90;59.30;;;;;;491514;240;1246;-74
2021/06/19 03:32:49;;;;;;;;;;;21.90;59.20;;;;;;491647;240;1051;-74
2021/06/19 03:34:51;;;;;;;;;;;21.90;59.20;;;;;;491675;240;983;-74
2021/06/19 03:36:58;;;;;;;;;;;21.90;59.30;;;;;;491527;240;1346;-74
2021/06/19 03:38:54;;;;;;;;;;;21.90;59.40;;;;;;491635;240;1377;-74
2021/06/19 03:40:56;;;;;;;;;;;21.80;59.50;;;;;;491534;240;1217;-74
2021/06/19 03:42:57;;;;;;;;;;;21.80;59.80;;;;;;491565;240;1163;-74
2021/06/19 03:44:58;;;;;;;;;;;21.70;60.00;;;;;;491636;240;975;-74
2021/06/19 03:47:00;;;;;;;;;;;21.70;60.10;;;;;;491500;240;2156;-74
2021/06/19 03:49:01;;;;;;;;;;;21.60;60.30;;;;;;491647;240;1107;-74
2021/06/19 03:51:02;;;;;;;;;;;21.60;60.30;;;;;;491602;240;1046;-74
2021/06/19 03:53:04;;;;;;;;;;;21.60;60.40;;;;;;491622;240;1034;-74
2021/06/19 03:55:05;;;;;;;;;;;21.60;60.50;;;;;;491565;240;1070;-74
2021/06/19 03:57:06;;;;;;;;;;;21.60;60.40;;;;;;491529;240;1044;-74
2021/06/19 03:59:08;;;;;;;;;;;21.60;60.60;;;;;;491625;240;1061;-74
2021/06/19 04:01:11;;;;;;;;;;;21.60;60.60;;;;;;491516;240;1126;-74
2021/06/19 04:03:11;;;;;;;;;;;21.60;60.60;;;;;;491596;240;1450;-74
2021/06/19 04:05:12;;;;;;;;;;;21.50;60.60;;;;;;491641;240;972;-74
2021/06/19 04:07:13;;;;;;;;;;;21.50;60.60;;;;;;491585;240;2199;-74
2021/06/19 04:09:15;;;;;;;;;;;21.60;60.70;;;;;;491609;240;968;-74
2021/06/19 04:11:16;;;;;;;;;;;21.60;60.80;;;;;;491537;240;1128;-74
2021/06/19 04:13:17;;;;;;;;;;;21.60;60.50;;;;;;491561;240;1063;-74
2021/06/19 04:15:19;;;;;;;;;;;21.70;60.40;;;;;;491551;240;1176;-74
2021/06/19 04:17:20;;;;;;;;;;;21.70;60.30;;;;;;491428;240;1209;-74
2021/06/19 04:19:21;;;;;;;;;;;21.80;60.00;;;;;;491607;240;976;-74
2021/06/19 04:21:23;;;;;;;;;;;21.70;60.00;;;;;;491632;240;1316;-74
2021/06/19 04:23:24;;;;;;;;;;;21.80;60.00;;;;;;491671;240;1071;-74
2021/06/19 04:25:25;;;;;;;;;;;21.80;60.00;;;;;;491606;240;968;-74
2021/06/19 04:27:27;;;;;;;;;;;21.80;60.00;;;;;;491485;240;2152;-74
2021/06/19 04:29:30;;;;;;;;;;;21.80;60.00;;;;;;491568;240;1084;-74
2021/06/19 04:31:31;;;;;;;;;;;21.90;59.80;;;;;;491462;240;1729;-74
2021/06/19 04:33:31;;;;;;;;;;;21.90;59.70;;;;;;491635;240;1302;-74
2021/06/19 04:35:32;;;;;;;;;;;21.90;59.80;;;;;;491643;240;999;-74
2021/06/19 04:37:34;;;;;;;;;;;21.80;59.90;;;;;;491626;240;1072;-74
2021/06/19 04:39:38;;;;;;;;;;;21.80;60.00;;;;;;491604;240;1019;-74
2021/06/19 04:41:47;;;;;;;;;;;21.80;60.00;;;;;;491636;240;1427;-74
2021/06/19 04:43:52;;;;;;;;;;;21.80;60.00;;;;;;491894;240;1346;-74
2021/06/19 04:45:42;;;;;;;;;;;21.80;59.90;;;;;;491779;240;1512;-74
2021/06/19 04:47:44;;;;;;;;;;;21.80;59.90;;;;;;491584;240;2208;-74
2021/06/19 04:49:45;;;;;;;;;;;21.80;60.00;;;;;;491598;240;1097;-74
2021/06/19 04:51:46;;;;;;;;;;;21.80;60.00;;;;;;491470;240;1102;-74
2021/06/19 04:53:48;;;;;;;;;;;21.80;59.90;;;;;;491568;240;1228;-74
2021/06/19 04:55:49;;;;;;;;;;;21.80;60.00;;;;;;491544;240;1044;-74
2021/06/19 04:57:52;;;;;;;;;;;21.90;60.00;;;;;;491569;240;1210;-74
2021/06/19 04:59:52;;;;;;;;;;;21.90;60.00;;;;;;491722;240;1338;-74
2021/06/19 05:01:54;;;;;;;;;;;21.80;59.90;;;;;;491539;240;1171;-74
2021/06/19 05:03:55;;;;;;;;;;;21.90;60.00;;;;;;491602;240;981;-74
2021/06/19 05:05:57;;;;;;;;;;;21.90;60.00;;;;;;491603;240;988;-74
2021/06/19 05:07:58;;;;;;;;;;;21.80;60.00;;;;;;491498;240;2136;-74
2021/06/19 05:10:01;;;;;;;;;;;21.80;60.00;;;;;;491613;240;1049;-74
2021/06/19 05:12:01;;;;;;;;;;;21.80;60.00;;;;;;491540;240;1314;-74
2021/06/19 05:14:02;;;;;;;;;;;21.90;60.00;;;;;;491600;240;981;-74
2021/06/19 05:16:03;;;;;;;;;;;21.90;60.00;;;;;;491556;240;1074;-74
2021/06/19 05:18:05;;;;;;;;;;;21.90;59.90;;;;;;491570;240;1297;-74
2021/06/19 05:20:06;;;;;;;;;;;22.00;59.80;;;;;;491567;240;1276;-74
2021/06/19 05:22:08;;;;;;;;;;;21.90;59.80;;;;;;491500;240;1118;-74
2021/06/19 05:24:11;;;;;;;;;;;21.90;59.80;;;;;;491659;240;1038;-74
2021/06/19 05:26:10;;;;;;;;;;;21.90;59.80;;;;;;491789;240;1212;-74
2021/06/19 05:28:11;;;;;;;;;;;21.90;59.80;;;;;;491550;240;2140;-74
2021/06/19 05:30:13;;;;;;;;;;;21.90;59.90;;;;;;491663;240;1072;-74
2021/06/19 05:32:14;;;;;;;;;;;21.90;59.80;;;;;;491470;240;1234;-74
2021/06/19 05:34:15;;;;;;;;;;;21.80;60.20;;;;;;491614;240;1092;-74
2021/06/19 05:36:17;;;;;;;;;;;21.80;60.50;;;;;;491604;240;1146;-74
2021/06/19 05:38:19;;;;;;;;;;;21.70;60.80;;;;;;491583;240;1265;-74
2021/06/19 05:40:19;;;;;;;;;;;21.70;61.00;;;;;;491649;240;1030;-74
2021/06/19 05:42:21;;;;;;;;;;;21.60;61.10;;;;;;491568;240;1232;-74
2021/06/19 05:44:22;;;;;;;;;;;21.70;61.20;;;;;;491552;240;949;-74
2021/06/19 05:46:23;;;;;;;;;;;21.60;61.20;;;;;;491531;240;1061;-74
2021/06/19 05:48:25;;;;;;;;;;;21.50;61.30;;;;;;491634;240;2167;-74
2021/06/19 05:50:26;;;;;;;;;;;21.60;61.30;;;;;;491614;240;1065;-74
2021/06/19 05:52:27;;;;;;;;;;;21.60;61.20;;;;;;491605;240;1206;-74
2021/06/19 05:54:29;;;;;;;;;;;21.60;61.10;;;;;;491604;240;986;-74
2021/06/19 05:56:30;;;;;;;;;;;21.60;61.30;;;;;;491423;240;1205;-74
2021/06/19 05:58:31;;;;;;;;;;;21.60;61.20;;;;;;491577;240;945;-74
2021/06/19 06:00:33;;;;;;;;;;;21.60;61.20;;;;;;491563;240;1051;-74
2021/06/19 06:02:34;;;;;;;;;;;21.70;61.00;;;;;;491449;240;1421;-74
2021/06/19 06:04:35;;;;;;;;;;;21.90;60.60;;;;;;491477;240;1199;-74
2021/06/19 06:06:37;;;;;;;;;;;22.00;60.10;;;;;;491261;240;1134;-74
2021/06/19 06:08:38;;;;;;;;;;;22.10;59.90;;;;;;491459;240;2228;-74
2021/06/19 06:10:40;;;;;;;;;;;22.10;59.80;;;;;;491501;240;1238;-74
2021/06/19 06:12:41;;;;;;;;;;;22.20;59.60;;;;;;491379;240;1460;-74
2021/06/19 06:14:42;;;;;;;;;;;22.20;59.40;;;;;;491410;240;1328;-74
2021/06/19 06:16:43;;;;;;;;;;;22.20;59.20;;;;;;491321;240;1267;-74
2021/06/19 06:18:45;;;;;;;;;;;22.30;59.10;;;;;;491378;240;1136;-74
2021/06/19 06:20:46;;;;;;;;;;;22.30;59.10;;;;;;491416;240;1233;-74
2021/06/19 06:22:48;;;;;;;;;;;22.30;58.90;;;;;;491443;240;1071;-74
2021/06/19 06:24:49;;;;;;;;;;;22.30;58.90;;;;;;491569;240;1051;-74
2021/06/19 06:26:50;;;;;;;;;;;22.30;58.90;;;;;;491489;240;1174;-74
2021/06/19 06:28:51;;;;;;;;;;;22.40;58.90;;;;;;491487;240;2144;-74
2021/06/19 06:30:53;;;;;;;;;;;22.40;58.90;;;;;;491444;240;1042;-74
2021/06/19 06:32:54;;;;;;;;;;;22.40;58.70;;;;;;491472;240;1270;-74
2021/06/19 06:34:55;;;;;;;;;;;22.40;58.70;;;;;;491499;240;1030;-74
2021/06/19 06:36:57;;;;;;;;;;;22.40;58.60;;;;;;491441;240;1231;-74
2021/06/19 06:39:02;;;;;;;;;;;22.50;58.60;;;;;;491493;240;1023;-74
2021/06/19 06:40:59;;;;;;;;;;;22.50;58.40;;;;;;491665;240;1398;-74
2021/06/19 06:43:01;;;;;;;;;;;22.50;58.40;;;;;;491505;240;1116;-74
2021/06/19 06:45:02;;;;;;;;;;;22.50;58.40;;;;;;491606;240;1011;-74
2021/06/19 06:47:05;;;;;;;;;;;22.50;58.40;;;;;;491570;240;1176;-74
2021/06/19 06:49:05;;;;;;;;;;;22.50;58.30;;;;;;491421;240;2140;-74
2021/06/19 06:51:07;;;;;;;;;;;22.50;58.40;;;;;;491404;240;1116;-74
2021/06/19 06:53:08;;;;;;;;;;;22.50;58.40;;;;;;491386;240;1204;-74
2021/06/19 06:55:09;;;;;;;;;;;22.60;58.30;;;;;;491467;240;972;-74
2021/06/19 06:57:11;;;;;;;;;;;22.50;58.30;;;;;;491441;240;1174;-74
2021/06/19 06:59:12;;;;;;;;;;;22.50;58.40;;;;;;491609;240;1237;-74
2021/06/19 07:01:13;;;;;;;;;;;22.40;58.70;;;;;;491526;240;1086;-74
2021/06/19 07:03:15;;;;;;;;;;;22.30;58.80;;;;;;491580;240;1164;-74
2021/06/19 07:05:16;;;;;;;;;;;22.30;59.10;;;;;;491543;240;1044;-74
2021/06/19 07:07:18;;;;;;;;;;;22.20;59.20;;;;;;491433;240;1208;-71
2021/06/19 07:09:19;;;;;;;;;;;22.20;59.50;;;;;;491493;240;2148;-71
2021/06/19 07:11:20;;;;;;;;;;;22.20;59.50;;;;;;491447;240;1245;-71
2021/06/19 07:13:22;;;;;;;;;;;22.20;59.50;;;;;;491509;240;1027;-72
2021/06/19 07:15:23;;;;;;;;;;;22.20;59.50;;;;;;491566;240;1157;-71
2021/06/19 07:17:24;;;;;;;;;;;22.20;59.60;;;;;;491607;240;1178;-72
2021/06/19 07:19:26;;;;;;;;;;;22.20;59.60;;;;;;491537;240;1184;-71
2021/06/19 07:21:27;;;;;;;;;;;22.10;59.70;;;;;;491535;240;1223;-71
2021/06/19 07:23:29;;;;;;;;;;;22.20;59.70;;;;;;491615;240;1121;-71
2021/06/19 07:25:29;;;;;;;;;;;22.10;59.80;;;;;;491602;240;1414;-71
2021/06/19 07:27:31;;;;;;;;;;;22.10;59.80;;;;;;491457;240;1147;-71
2021/06/19 07:29:32;;;;;;;;;;;22.10;59.80;;;;;;491495;240;2183;-72
2021/06/19 07:31:33;;;;;;;;;;;22.10;60.00;;;;;;491458;240;1397;-72
2021/06/19 07:33:35;;;;;;;;;;;21.90;60.20;;;;;;491592;240;1097;-72
2021/06/19 07:35:36;;;;;;;;;;;21.90;60.60;;;;;;491565;240;1202;-72
2021/06/19 07:37:37;;;;;;;;;;;21.90;60.90;;;;;;491481;240;1117;-72
2021/06/19 07:39:39;;;;;;;;;;;21.90;61.00;;;;;;491585;240;1070;-72
2021/06/19 07:41:40;;;;;;;;;;;21.80;61.20;;;;;;491443;240;1026;-71
2021/06/19 07:43:43;;;;;;;;;;;21.80;61.20;;;;;;491504;240;955;-71
2021/06/19 07:45:43;;;;;;;;;;;21.80;61.40;;;;;;491573;240;1377;-71
2021/06/19 07:47:44;;;;;;;;;;;21.70;61.40;;;;;;491514;240;1037;-72
2021/06/19 07:49:45;;;;;;;;;;;21.70;61.50;;;;;;491431;240;2171;-72
2021/06/19 07:51:47;;;;;;;;;;;21.70;61.60;;;;;;491497;240;1135;-71
2021/06/19 07:53:48;;;;;;;;;;;21.70;61.60;;;;;;491512;240;1148;-72
2021/06/19 07:55:49;;;;;;;;;;;21.70;61.50;;;;;;491524;240;986;-72
2021/06/19 07:57:51;;;;;;;;;;;21.70;61.60;;;;;;491631;240;1149;-72
2021/06/19 07:59:52;;;;;;;;;;;21.70;61.60;;;;;;491579;240;1105;-71
2021/06/19 08:01:53;;;;;;;;;;;21.60;61.70;;;;;;491561;240;1120;-71
2021/06/19 08:03:55;;;;;;;;;;;21.60;61.80;;;;;;491639;240;1154;-71
2021/06/19 08:05:56;;;;;;;;;;;21.70;61.70;;;;;;491498;240;1190;-73
2021/06/19 08:07:57;;;;;;;;;;;21.80;61.40;;;;;;491494;240;1092;-71
2021/06/19 08:09:59;;;;;;;;;;;21.70;61.30;;;;;;491501;240;2579;-71
2021/06/19 08:12:00;;;;;;;;;;;21.80;61.10;;;;;;491308;240;1197;-71
2021/06/19 08:14:01;;;;;;;;;;;21.90;61.00;;;;;;491500;240;1041;-71
2021/06/19 08:16:04;;;;;;;;;;;21.90;60.90;;;;;;491491;240;1198;-72
2021/06/19 08:18:04;;;;;;;;;;;21.90;61.00;;;;;;491534;240;1338;-72
2021/06/19 08:20:05;;;;;;;;;;;21.90;61.10;;;;;;491495;240;1254;-72
2021/06/19 08:22:07;;;;;;;;;;;21.80;61.00;;;;;;491457;240;1163;-71
2021/06/19 08:24:08;;;;;;;;;;;21.90;61.00;;;;;;491554;240;1001;-71
2021/06/19 08:26:09;;;;;;;;;;;21.90;60.80;;;;;;491484;240;1120;-74
2021/06/19 08:28:11;;;;;;;;;;;21.90;60.80;;;;;;491507;240;1146;-74
2021/06/19 08:30:12;;;;;;;;;;;21.90;60.90;;;;;;491434;240;2180;-74
2021/06/19 08:32:14;;;;;;;;;;;22.00;60.60;;;;;;491400;240;1031;-74
2021/06/19 08:34:15;;;;;;;;;;;22.00;60.60;;;;;;491449;240;1110;-74
2021/06/19 08:36:16;;;;;;;;;;;22.00;60.60;;;;;;491418;240;1053;-74
2021/06/19 08:38:17;;;;;;;;;;;22.00;60.70;;;;;;491416;240;1286;-74
2021/06/19 08:40:19;;;;;;;;;;;21.90;60.90;;;;;;491519;240;1076;-74
2021/06/19 08:42:20;;;;;;;;;;;21.80;61.20;;;;;;491394;240;1098;-74
2021/06/19 08:44:22;;;;;;;;;;;21.80;61.40;;;;;;491431;240;1116;-74
2021/06/19 08:46:23;;;;;;;;;;;21.80;61.50;;;;;;491450;240;1135;-74
2021/06/19 08:48:24;;;;;;;;;;;21.70;61.50;;;;;;491470;240;1184;-74
2021/06/19 08:50:26;;;;;;;;;;;21.70;61.60;;;;;;491433;240;2184;-74
2021/06/19 08:52:27;;;;;;;;;;;21.70;61.80;;;;;;491479;240;1192;-74
2021/06/19 08:54:38;;;;;;;;;;;21.60;61.90;;;;;;491511;240;986;-74
2021/06/19 08:56:31;;;;;;;;;;;21.60;62.10;;;;;;491489;240;1299;-74
2021/06/19 08:58:32;;;;;;;;;;;21.50;62.00;;;;;;491494;240;1027;-74
2021/06/19 09:00:33;;;;;;;;;;;21.50;62.10;;;;;;491342;240;1100;-74
2021/06/19 09:02:35;;;;;;;;;;;21.50;62.40;;;;;;491328;240;1076;-74
2021/06/19 09:04:36;;;;;;;;;;;21.50;62.20;;;;;;491440;240;1142;-74
2021/06/19 09:06:37;;;;;;;;;;;21.50;62.20;;;;;;491406;240;1210;-74
2021/06/19 09:08:39;;;;;;;;;;;21.60;62.20;;;;;;491433;240;978;-74
2021/06/19 09:10:40;;;;;;;;;;;21.70;62.00;;;;;;491439;240;2175;-74
2021/06/19 09:12:41;;;;;;;;;;;21.70;61.80;;;;;;491427;240;1152;-74
2021/06/19 09:14:43;;;;;;;;;;;21.70;61.60;;;;;;491323;240;1044;-74
2021/06/19 09:16:44;;;;;;;;;;;21.80;61.40;;;;;;491327;240;1212;-74
2021/06/19 09:18:45;;;;;;;;;;;21.80;61.40;;;;;;491416;240;1078;-74
2021/06/19 09:20:49;;;;;;;;;;;21.80;61.40;;;;;;491371;240;1335;-74
2021/06/19 09:22:50;;;;;;;;;;;21.80;61.20;;;;;;491404;240;1391;-74
2021/06/19 09:24:51;;;;;;;;;;;21.80;61.20;;;;;;491428;240;1071;-74
2021/06/19 09:26:52;;;;;;;;;;;21.90;61.20;;;;;;491370;240;1175;-74
2021/06/19 09:28:54;;;;;;;;;;;21.90;61.10;;;;;;491448;240;2207;-74
2021/06/19 09:30:55;;;;;;;;;;;21.90;61.10;;;;;;491480;240;1219;-74
2021/06/19 09:32:56;;;;;;;;;;;21.90;61.00;;;;;;491451;240;1071;-74
2021/06/19 09:34:58;;;;;;;;;;;21.90;61.10;;;;;;491362;240;1167;-74
2021/06/19 09:37:03;;;;;;;;;;;21.90;61.20;;;;;;491358;240;1234;-74
2021/06/19 09:39:00;;;;;;;;;;;21.90;61.20;;;;;;491366;240;1405;-74
2021/06/19 09:41:02;;;;;;;;;;;22.00;61.10;;;;;;491391;240;1133;-74
2021/06/19 09:43:03;;;;;;;;;;;22.00;60.90;;;;;;491387;240;1235;-74
2021/06/19 09:45:04;;;;;;;;;;;22.10;60.70;;;;;;491471;240;1084;-74
2021/06/19 09:47:06;;;;;;;;;;;22.20;60.70;;;;;;491341;240;1069;-74
2021/06/19 09:49:07;;;;;;;;;;;22.20;60.70;;;;;;491381;240;2117;-74
2021/06/19 09:51:08;;;;;;;;;;;22.20;60.70;;;;;;491353;240;1162;-74
2021/06/19 09:53:10;;;;;;;;;;;22.20;60.60;;;;;;491420;240;1116;-74
2021/06/19 09:55:11;;;;;;;;;;;22.10;61.00;;;;;;491369;240;1098;-74
2021/06/19 09:57:13;;;;;;;;;;;22.00;61.20;;;;;;491394;240;1150;-74
2021/06/19 09:59:14;;;;;;;;;;;21.90;61.50;;;;;;491468;240;1471;-74
2021/06/19 10:01:15;;;;;;;;;;;21.80;61.70;;;;;;491364;240;1422;-74
2021/06/19 10:03:16;;;;;;;;;;;21.70;61.80;;;;;;491332;240;1067;-74
2021/06/19 10:05:18;;;;;;;;;;;21.70;62.10;;;;;;491369;240;1241;-74
2021/06/19 10:07:19;;;;;;;;;;;21.70;62.20;;;;;;491362;240;1082;-74
2021/06/19 10:09:20;;;;;;;;;;;21.70;62.20;;;;;;491370;240;2120;-74
2021/06/19 10:11:24;;;;;;;;;;;21.70;62.20;;;;;;491398;240;1174;-74
2021/06/19 10:13:23;;;;;;;;;;;21.70;62.30;;;;;;491408;240;1266;-74
2021/06/19 10:15:24;;;;;;;;;;;21.80;62.10;;;;;;491520;240;1031;-74
2021/06/19 10:17:26;;;;;;;;;;;21.90;61.60;;;;;;491410;240;1160;-74
2021/06/19 10:19:27;;;;;;;;;;;22.10;61.30;;;;;;491372;240;1120;-74
2021/06/19 10:21:28;;;;;;;;;;;22.20;60.90;;;;;;491397;240;1304;-74
2021/06/19 10:23:30;;;;;;;;;;;22.20;60.50;;;;;;491450;240;1121;-74
2021/06/19 10:25:32;;;;;;;;;;;22.40;60.30;;;;;;491316;240;1044;-74
2021/06/19 10:27:33;;;;;;;;;;;22.40;60.00;;;;;;491386;240;1265;-74
2021/06/19 10:29:34;;;;;;;;;;;22.40;59.90;;;;;;491433;240;2184;-74
2021/06/19 10:31:35;;;;;;;;;;;22.50;59.90;;;;;;491445;240;1061;-74
2021/06/19 10:33:37;;;;;;;;;;;22.60;59.60;;;;;;491449;240;1146;-74
2021/06/19 10:35:38;;;;;;;;;;;22.60;59.60;;;;;;491380;240;1171;-74
2021/06/19 10:37:39;;;;;;;;;;;22.50;59.60;;;;;;491270;240;1054;-74
2021/06/19 10:39:42;;;;;;;;;;;22.60;59.50;;;;;;491462;240;1366;-74
2021/06/19 10:41:42;;;;;;;;;;;22.60;59.50;;;;;;491430;240;1052;-74
2021/06/19 10:43:44;;;;;;;;;;;22.60;59.50;;;;;;491408;240;1219;-74
2021/06/19 10:45:46;;;;;;;;;;;22.60;59.60;;;;;;491537;240;1071;-74
2021/06/19 10:47:47;;;;;;;;;;;22.60;59.50;;;;;;491450;240;1081;-74
2021/06/19 10:49:48;;;;;;;;;;;22.60;59.70;;;;;;491469;240;2136;-74
2021/06/19 10:51:50;;;;;;;;;;;22.60;59.70;;;;;;491383;240;1151;-74
2021/06/19 10:53:51;;;;;;;;;;;22.50;59.80;;;;;;491494;240;1061;-74
2021/06/19 10:55:53;;;;;;;;;;;22.30;60.20;;;;;;491477;240;1088;-74
2021/06/19 10:57:54;;;;;;;;;;;22.20;60.70;;;;;;491489;240;1230;-74
2021/06/19 10:59:55;;;;;;;;;;;22.10;60.90;;;;;;491464;240;1015;-74
2021/06/19 11:01:57;;;;;;;;;;;22.10;61.20;;;;;;491516;240;1298;-74
2021/06/19 11:03:58;;;;;;;;;;;22.10;61.40;;;;;;491460;240;968;-74
2021/06/19 11:05:59;;;;;;;;;;;22.00;61.60;;;;;;491409;240;1302;-74
2021/06/19 11:08:01;;;;;;;;;;;22.00;61.70;;;;;;491343;240;1109;-74
2021/06/19 11:10:03;;;;;;;;;;;22.00;61.80;;;;;;491446;240;2191;-74
2021/06/19 11:12:04;;;;;;;;;;;21.90;61.80;;;;;;491462;240;1378;-74
2021/06/19 11:14:05;;;;;;;;;;;21.90;62.00;;;;;;491446;240;1385;-74
2021/06/19 11:16:06;;;;;;;;;;;21.80;62.00;;;;;;491281;240;1090;-74
2021/06/19 11:18:07;;;;;;;;;;;21.90;62.00;;;;;;491359;240;1217;-74
2021/06/19 11:20:09;;;;;;;;;;;22.00;61.80;;;;;;491365;240;1065;-74
2021/06/19 11:22:10;;;;;;;;;;;22.10;61.60;;;;;;491487;240;1145;-74
2021/06/19 11:24:11;;;;;;;;;;;22.10;61.10;;;;;;491395;240;1032;-74
2021/06/19 11:26:13;;;;;;;;;;;22.20;60.90;;;;;;491470;240;1106;-74
2021/06/19 11:28:14;;;;;;;;;;;22.20;60.90;;;;;;491399;240;1049;-74
2021/06/19 11:30:15;;;;;;;;;;;22.20;60.90;;;;;;491518;240;2136;-74
2021/06/19 11:32:17;;;;;;;;;;;22.30;60.50;;;;;;491422;240;1041;-74
2021/06/19 11:34:18;;;;;;;;;;;22.30;60.50;;;;;;491512;240;1049;-74
2021/06/19 11:36:19;;;;;;;;;;;22.30;60.50;;;;;;491367;240;1143;-74
2021/06/19 11:38:21;;;;;;;;;;;22.30;60.40;;;;;;491343;240;1067;-74
2021/06/19 11:40:22;;;;;;;;;;;22.30;60.50;;;;;;491399;240;1015;-74
2021/06/19 11:42:23;;;;;;;;;;;22.30;60.50;;;;;;491494;240;1063;-74
2021/06/19 11:44:34;;;;;;;;;;;22.30;60.40;;;;;;491505;240;1024;-74
2021/06/19 11:46:35;;;;;;;;;;;22.30;60.40;;;;;;491416;240;987;-74
2021/06/19 11:48:36;;;;;;;;;;;22.30;60.50;;;;;;491365;240;1014;-74
2021/06/19 11:50:37;;;;;;;;;;;22.30;60.40;;;;;;491323;240;2212;-74
2021/06/19 11:52:39;;;;;;;;;;;22.30;60.30;;;;;;491420;240;1279;-74
2021/06/19 11:54:44;;;;;;;;;;;22.30;60.40;;;;;;491432;240;1029;-75
2021/06/19 11:56:45;;;;;;;;;;;22.30;60.40;;;;;;491373;240;1214;-74